Time;durP1;ratioP1;P1;durP2;ratioP2;P2;SDS_P1;SDS_P2;PMS_P1;PMS_P2;Temp;Humidity;BMP_temperature;BMP_pressure;BME280_temperature;BME280_humidity;BME280_pressure;Samples;Min_cycle;Max_cycle;Signal;HPM_P1;HPM_P2
2023/06/21 00:00:12;;;;;;;4.03;2.17;;;19.80;99.90;;;;;;4986946;28;21068;-60
2023/06/21 00:02:40;;;;;;;4.60;2.27;;;19.80;99.90;;;;;;4984694;28;20550;-60
2023/06/21 00:05:09;;;;;;;3.30;1.73;;;19.80;99.90;;;;;;4987963;28;20507;-58
2023/06/21 00:07:38;;;;;;;6.70;2.23;;;19.80;99.90;;;;;;4986360;28;20444;-58
2023/06/21 00:10:07;;;;;;;4.13;1.70;;;19.70;99.90;;;;;;4976215;28;20479;-58
2023/06/21 00:12:37;;;;;;;4.60;1.90;;;19.70;99.90;;;;;;4995852;28;20487;-58
2023/06/21 00:15:06;;;;;;;3.20;1.70;;;19.70;99.90;;;;;;4999855;28;20541;-58
2023/06/21 00:17:34;;;;;;;3.07;1.67;;;19.70;99.90;;;;;;4992649;28;20531;-57
2023/06/21 00:20:03;;;;;;;3.80;1.50;;;19.70;99.90;;;;;;4992452;28;20827;-57
2023/06/21 00:22:31;;;;;;;3.13;1.53;;;19.70;99.90;;;;;;4990556;28;20488;-58
2023/06/21 00:24:59;;;;;;;2.37;1.73;;;19.60;99.90;;;;;;4993330;28;20532;-58
2023/06/21 00:27:27;;;;;;;4.27;2.00;;;19.60;99.90;;;;;;4991127;28;20552;-58
2023/06/21 00:29:56;;;;;;;3.10;1.70;;;19.50;99.90;;;;;;4994480;28;20464;-58
2023/06/21 00:32:24;;;;;;;3.10;1.80;;;19.50;99.90;;;;;;4991954;28;20491;-58
2023/06/21 00:34:52;;;;;;;2.23;1.53;;;19.50;99.90;;;;;;4994337;28;20500;-57
2023/06/21 00:37:20;;;;;;;2.27;1.40;;;19.50;99.90;;;;;;4986523;28;20471;-59
2023/06/21 00:39:48;;;;;;;3.57;1.40;;;19.50;99.90;;;;;;4998830;28;20481;-58
2023/06/21 00:42:16;;;;;;;2.90;1.60;;;19.50;99.90;;;;;;4997091;28;20566;-58
2023/06/21 00:44:44;;;;;;;2.87;2.00;;;19.50;99.90;;;;;;4999705;28;20575;-58
2023/06/21 00:47:13;;;;;;;4.00;1.83;;;19.50;99.90;;;;;;4990363;28;20499;-58
2023/06/21 00:49:42;;;;;;;3.37;1.70;;;19.50;99.90;;;;;;4991764;28;20835;-58
2023/06/21 00:52:10;;;;;;;4.50;1.80;;;19.40;99.90;;;;;;4991511;28;21072;-58
2023/06/21 00:54:40;;;;;;;3.07;1.50;;;19.40;99.90;;;;;;4994597;28;20613;-59
2023/06/21 00:57:11;;;;;;;2.77;1.80;;;19.40;99.90;;;;;;4993795;28;20531;-58
2023/06/21 00:59:39;;;;;;;2.90;1.83;;;19.40;99.90;;;;;;4995404;28;20507;-58
2023/06/21 01:02:07;;;;;;;3.57;1.93;;;19.40;99.90;;;;;;4996799;28;20484;-57
2023/06/21 01:04:37;;;;;;;2.90;1.87;;;19.30;99.90;;;;;;5010425;28;20484;-58
2023/06/21 01:07:14;;;;;;;3.30;2.03;;;19.30;99.90;;;;;;5007930;28;20492;-58
2023/06/21 01:09:57;;;;;;;3.40;2.10;;;19.30;99.90;;;;;;5011028;28;20556;-58
2023/06/21 01:12:38;;;;;;;3.20;1.90;;;19.20;99.90;;;;;;5016348;28;20708;-58
2023/06/21 01:15:10;;;;;;;2.60;1.70;;;19.20;99.90;;;;;;5013494;28;20492;-58
2023/06/21 01:17:41;;;;;;;2.30;1.47;;;19.20;99.90;;;;;;5003645;28;20564;-59
2023/06/21 01:20:18;;;;;;;3.17;2.00;;;19.20;99.90;;;;;;4996891;28;20846;-58
2023/06/21 01:23:00;;;;;;;2.40;1.90;;;19.20;99.90;;;;;;4984645;28;20500;-58
2023/06/21 01:25:40;;;;;;;3.07;1.97;;;19.20;99.90;;;;;;4989285;28;20578;-58
2023/06/21 01:28:28;;;;;;;4.97;2.33;;;19.20;99.90;;;;;;4999264;28;20476;-57
2023/06/21 01:30:59;;;;;;;3.07;2.40;;;19.20;99.90;;;;;;5003405;28;20504;-59
2023/06/21 01:33:28;;;;;;;4.40;2.30;;;19.20;99.90;;;;;;5002520;28;20981;-59
2023/06/21 01:35:57;;;;;;;2.80;2.10;;;19.20;99.90;;;;;;4999103;28;20564;-59
2023/06/21 01:38:26;;;;;;;2.23;2.03;;;19.20;99.90;;;;;;4993521;28;20475;-58
2023/06/21 01:40:54;;;;;;;2.50;2.17;;;19.20;99.90;;;;;;4993531;28;20480;-58
2023/06/21 01:43:22;;;;;;;8.73;2.50;;;19.20;99.90;;;;;;4998606;28;20578;-59
2023/06/21 01:45:51;;;;;;;5.30;2.70;;;19.10;99.90;;;;;;4997102;28;20617;-58
2023/06/21 01:48:21;;;;;;;4.00;2.40;;;19.20;99.90;;;;;;4997570;28;20471;-59
2023/06/21 01:50:51;;;;;;;3.80;2.20;;;19.20;99.90;;;;;;4993777;28;20557;-61
2023/06/21 01:53:20;;;;;;;2.63;2.40;;;19.10;99.90;;;;;;4990123;28;20944;-59
2023/06/21 01:55:52;;;;;;;3.43;2.50;;;19.10;99.90;;;;;;4987756;28;20940;-59
2023/06/21 01:58:20;;;;;;;3.70;2.90;;;19.10;99.90;;;;;;4985141;28;20559;-58
2023/06/21 02:00:48;;;;;;;7.13;3.60;;;19.10;99.90;;;;;;4985953;28;20526;-58
2023/06/21 02:03:17;;;;;;;3.30;2.80;;;19.00;99.90;;;;;;4992577;28;20492;-58
2023/06/21 02:05:47;;;;;;;3.73;3.13;;;19.00;99.90;;;;;;4986162;28;21011;-57
2023/06/21 02:08:16;;;;;;;4.67;3.37;;;18.90;99.90;;;;;;4990941;28;20740;-59
2023/06/21 02:10:46;;;;;;;3.97;3.07;;;18.90;99.90;;;;;;4990903;28;20496;-58
2023/06/21 02:13:15;;;;;;;3.60;3.23;;;18.90;99.90;;;;;;4994587;28;20478;-58
2023/06/21 02:15:43;;;;;;;5.67;3.30;;;18.90;99.90;;;;;;4990093;28;20576;-57
2023/06/21 02:18:12;;;;;;;5.33;3.40;;;18.90;99.90;;;;;;4995503;28;20533;-58
2023/06/21 02:20:40;;;;;;;4.07;3.27;;;19.00;99.90;;;;;;4991296;28;20806;-59
2023/06/21 02:23:09;;;;;;;4.23;3.60;;;19.00;99.90;;;;;;4995100;28;20533;-58
2023/06/21 02:25:37;;;;;;;6.43;3.97;;;19.00;99.90;;;;;;4985360;28;20502;-59
2023/06/21 02:28:06;;;;;;;5.03;3.40;;;19.00;99.90;;;;;;4989498;28;20475;-58
2023/06/21 02:30:34;;;;;;;4.10;3.67;;;19.00;99.90;;;;;;4988201;28;20563;-58
2023/06/21 02:33:02;;;;;;;3.40;3.10;;;19.00;99.90;;;;;;4987926;28;20551;-58
2023/06/21 02:35:30;;;;;;;3.80;3.50;;;19.00;99.90;;;;;;4991861;28;20519;-58
2023/06/21 02:37:58;;;;;;;4.07;3.67;;;19.00;99.90;;;;;;4987820;28;21057;-58
2023/06/21 02:40:27;;;;;;;5.20;4.07;;;19.00;99.90;;;;;;4991515;28;20894;-58
2023/06/21 02:42:56;;;;;;;4.00;3.50;;;19.00;99.90;;;;;;4990162;28;20497;-59
2023/06/21 02:45:24;;;;;;;4.30;3.90;;;19.00;99.90;;;;;;4993070;28;20492;-58
2023/06/21 02:47:52;;;;;;;3.63;3.33;;;19.00;99.90;;;;;;4996145;28;20563;-58
2023/06/21 02:50:20;;;;;;;4.10;3.80;;;19.00;99.90;;;;;;4985434;28;21001;-58
2023/06/21 02:52:48;;;;;;;3.97;3.67;;;19.00;99.90;;;;;;4983226;28;20582;-58
2023/06/21 02:55:17;;;;;;;4.40;3.73;;;19.00;99.90;;;;;;4981990;28;20519;-58
2023/06/21 02:57:46;;;;;;;4.03;3.63;;;19.00;99.90;;;;;;4996470;28;20821;-60
2023/06/21 03:00:22;;;;;;;4.70;3.90;;;19.00;99.90;;;;;;4994015;28;20925;-58
2023/06/21 03:02:51;;;;;;;4.20;3.83;;;19.00;99.90;;;;;;4986663;28;20497;-58
2023/06/21 03:05:19;;;;;;;4.57;4.17;;;19.00;99.90;;;;;;4987760;28;20504;-60
2023/06/21 03:07:47;;;;;;;4.03;3.63;;;19.00;99.90;;;;;;4984866;28;20965;-59
2023/06/21 03:10:16;;;;;;;4.47;4.07;;;19.00;99.90;;;;;;4989062;28;20482;-60
2023/06/21 03:12:46;;;;;;;4.37;4.03;;;19.00;99.90;;;;;;4983695;28;20489;-60
2023/06/21 03:15:14;;;;;;;4.43;4.03;;;18.90;99.90;;;;;;4994470;28;20498;-60
2023/06/21 03:17:42;;;;;;;4.93;4.43;;;18.90;99.90;;;;;;4989418;28;20568;-59
2023/06/21 03:20:13;;;;;;;4.67;4.20;;;18.90;99.90;;;;;;4993276;28;20500;-61
2023/06/21 03:22:41;;;;;;;4.90;4.50;;;18.90;99.90;;;;;;4987235;28;20606;-60
2023/06/21 03:25:10;;;;;;;4.93;4.27;;;18.90;99.90;;;;;;4984151;28;20853;-59
2023/06/21 03:27:39;;;;;;;4.63;3.93;;;18.90;99.90;;;;;;5005380;28;20478;-61
2023/06/21 03:30:11;;;;;;;4.60;4.10;;;18.90;99.90;;;;;;5011799;28;20558;-60
2023/06/21 03:32:46;;;;;;;5.07;4.60;;;18.90;99.90;;;;;;4998105;28;20500;-60
2023/06/21 03:35:14;;;;;;;5.40;4.80;;;18.90;99.90;;;;;;4990607;28;20497;-60
2023/06/21 03:37:42;;;;;;;5.40;4.60;;;18.90;99.90;;;;;;4992267;28;20472;-60
2023/06/21 03:40:13;;;;;;;5.93;5.40;;;18.90;99.90;;;;;;4995019;28;20711;-60
2023/06/21 03:42:42;;;;;;;5.10;4.67;;;18.90;99.90;;;;;;4986667;28;20500;-60
2023/06/21 03:45:12;;;;;;;5.50;4.60;;;18.90;99.90;;;;;;4996484;28;20510;-60
2023/06/21 03:47:42;;;;;;;6.10;5.53;;;18.90;99.90;;;;;;4990829;28;20488;-60
2023/06/21 03:50:11;;;;;;;6.20;5.60;;;19.00;99.90;;;;;;5000987;28;20483;-60
2023/06/21 03:52:39;;;;;;;5.63;5.13;;;19.00;99.90;;;;;;4990237;28;20634;-60
2023/06/21 03:55:09;;;;;;;5.33;4.80;;;19.00;99.90;;;;;;4994281;28;20585;-60
2023/06/21 03:57:38;;;;;;;5.90;5.40;;;19.10;99.90;;;;;;5001641;28;20491;-61
2023/06/21 04:00:08;;;;;;;6.93;6.23;;;19.00;99.90;;;;;;4998895;28;20526;-61
2023/06/21 04:02:37;;;;;;;6.20;5.60;;;19.00;99.90;;;;;;4988597;28;21134;-60
2023/06/21 04:05:06;;;;;;;5.73;5.33;;;19.10;99.90;;;;;;4989068;28;21433;-61
2023/06/21 04:07:34;;;;;;;7.33;6.63;;;19.10;99.90;;;;;;4993173;28;20552;-61
2023/06/21 04:10:02;;;;;;;8.03;6.27;;;19.10;99.90;;;;;;4989719;28;20590;-60
2023/06/21 04:12:31;;;;;;;7.17;6.57;;;19.10;99.90;;;;;;4982845;28;20496;-60
2023/06/21 04:15:00;;;;;;;6.80;6.30;;;19.20;99.90;;;;;;4989927;28;21020;-60
2023/06/21 04:17:28;;;;;;;7.13;6.20;;;19.20;99.90;;;;;;4988971;28;20883;-60
2023/06/21 04:19:58;;;;;;;6.53;5.93;;;19.30;99.90;;;;;;4989513;28;20477;-60
2023/06/21 04:22:26;;;;;;;6.83;6.33;;;19.30;99.90;;;;;;4989993;28;20496;-60
2023/06/21 04:24:54;;;;;;;7.60;6.90;;;19.30;99.90;;;;;;4988365;28;20694;-60
2023/06/21 04:27:23;;;;;;;7.33;6.73;;;19.40;99.90;;;;;;4986154;28;20488;-60
2023/06/21 04:29:51;;;;;;;7.40;6.80;;;19.40;99.90;;;;;;4995376;28;20559;-60
2023/06/21 04:32:19;;;;;;;7.90;7.23;;;19.40;99.90;;;;;;4981564;28;20618;-60
2023/06/21 04:34:49;;;;;;;9.03;7.70;;;19.50;99.90;;;;;;4992637;28;20492;-60
2023/06/21 04:37:20;;;;;;;7.90;7.30;;;19.50;99.90;;;;;;4981219;28;20476;-60
2023/06/21 04:39:48;;;;;;;7.93;7.33;;;19.50;99.90;;;;;;4981661;28;20865;-60
2023/06/21 04:42:20;;;;;;;8.03;7.33;;;19.60;99.90;;;;;;4990751;28;20855;-59
2023/06/21 04:44:49;;;;;;;8.90;8.10;;;19.60;99.90;;;;;;4991506;28;21005;-60
2023/06/21 04:47:17;;;;;;;8.77;8.07;;;19.60;99.90;;;;;;4992593;28;20480;-60
2023/06/21 04:49:45;;;;;;;8.40;7.80;;;19.60;99.90;;;;;;4985925;28;20478;-60
2023/06/21 04:52:13;;;;;;;9.47;8.67;;;19.70;99.90;;;;;;4981315;28;20943;-60
2023/06/21 04:54:43;;;;;;;8.40;7.70;;;19.70;99.90;;;;;;4979947;28;20496;-61
2023/06/21 04:57:12;;;;;;;9.30;8.60;;;19.80;99.90;;;;;;4980877;28;20530;-60
2023/06/21 04:59:40;;;;;;;8.97;8.30;;;19.80;99.90;;;;;;4987329;28;20469;-60
2023/06/21 05:02:08;;;;;;;9.40;8.60;;;19.90;99.90;;;;;;4976081;28;20501;-60
2023/06/21 05:04:36;;;;;;;9.50;8.80;;;19.90;99.90;;;;;;4984806;28;20507;-60
2023/06/21 05:07:05;;;;;;;9.30;8.40;;;20.00;99.90;;;;;;4988183;28;20469;-60
2023/06/21 05:09:33;;;;;;;8.93;8.23;;;20.00;99.90;;;;;;4993270;28;20476;-60
2023/06/21 05:12:02;;;;;;;10.77;9.83;;;20.10;99.90;;;;;;4984626;28;20916;-60
2023/06/21 05:14:30;;;;;;;10.03;9.23;;;20.10;99.90;;;;;;4990208;28;20492;-63
2023/06/21 05:16:58;;;;;;;10.73;9.80;;;20.10;99.90;;;;;;4986759;28;21749;-64
2023/06/21 05:19:26;;;;;;;11.00;10.00;;;20.10;99.90;;;;;;4984400;28;21146;-60
2023/06/21 05:21:54;;;;;;;10.87;9.87;;;20.10;99.90;;;;;;4993541;28;21036;-60
2023/06/21 05:24:22;;;;;;;11.50;10.50;;;20.20;99.90;;;;;;4984819;28;20492;-61
2023/06/21 05:26:50;;;;;;;12.03;11.00;;;20.20;99.90;;;;;;4988271;28;20574;-60
2023/06/21 05:29:20;;;;;;;13.17;11.87;;;20.20;99.90;;;;;;4993941;28;21001;-60
2023/06/21 05:31:48;;;;;;;12.70;11.60;;;20.20;99.90;;;;;;4980883;28;20488;-60
2023/06/21 05:34:16;;;;;;;13.70;12.60;;;20.10;99.90;;;;;;4991657;28;20529;-60
2023/06/21 05:36:44;;;;;;;13.60;12.50;;;20.10;99.90;;;;;;4982346;28;20571;-65
2023/06/21 05:39:12;;;;;;;15.43;13.93;;;20.00;99.90;;;;;;4994409;28;20496;-60
2023/06/21 05:41:40;;;;;;;15.43;14.17;;;20.00;99.90;;;;;;4992553;28;20508;-60
2023/06/21 05:44:08;;;;;;;17.67;16.07;;;19.90;99.90;;;;;;4993050;28;20527;-61
2023/06/21 05:46:37;;;;;;;19.10;17.40;;;19.90;99.90;;;;;;4992999;28;20496;-60
2023/06/21 05:49:05;;;;;;;19.30;17.50;;;19.90;99.90;;;;;;4989669;28;20564;-61
2023/06/21 05:51:33;;;;;;;19.63;17.73;;;19.90;99.90;;;;;;4987638;28;20489;-61
2023/06/21 05:54:01;;;;;;;18.37;16.67;;;19.90;99.90;;;;;;4987680;28;20516;-60
2023/06/21 05:56:31;;;;;;;22.83;20.70;;;19.90;99.90;;;;;;4991394;28;20587;-61
2023/06/21 05:58:59;;;;;;;21.03;19.00;;;19.80;99.90;;;;;;4992889;28;20480;-61
2023/06/21 06:01:27;;;;;;;24.20;22.00;;;19.80;99.90;;;;;;4994269;28;21176;-61
2023/06/21 06:03:56;;;;;;;24.97;22.67;;;19.80;99.90;;;;;;4989869;28;20959;-60
2023/06/21 06:06:36;;;;;;;26.40;23.90;;;19.80;99.90;;;;;;4993542;28;20844;-65
2023/06/21 06:09:04;;;;;;;23.50;21.20;;;19.80;99.90;;;;;;4983356;28;20491;-60
2023/06/21 06:11:32;;;;;;;26.60;24.00;;;19.80;99.90;;;;;;4986713;28;20539;-61
2023/06/21 06:14:01;;;;;;;26.80;24.20;;;19.80;99.90;;;;;;4991717;28;20491;-61
2023/06/21 06:16:29;;;;;;;27.53;25.03;;;19.70;99.90;;;;;;4996909;28;20549;-61
2023/06/21 06:18:58;;;;;;;28.80;25.90;;;19.70;99.90;;;;;;4993134;28;20973;-61
2023/06/21 06:21:26;;;;;;;27.30;24.77;;;19.80;99.90;;;;;;5001935;28;20484;-61
2023/06/21 06:23:54;;;;;;;28.33;25.73;;;19.90;99.90;;;;;;5000295;28;20550;-62
2023/06/21 06:26:24;;;;;;;29.30;26.53;;;20.00;99.90;;;;;;5000672;28;20558;-61
2023/06/21 06:28:54;;;;;;;30.90;27.90;;;20.10;99.90;;;;;;4996997;28;20547;-61
2023/06/21 06:31:23;;;;;;;29.20;26.20;;;20.20;99.90;;;;;;4993505;28;20472;-62
2023/06/21 06:33:52;;;;;;;30.97;28.17;;;20.20;99.90;;;;;;4994604;28;20536;-61
2023/06/21 06:36:22;;;;;;;29.50;26.63;;;20.30;99.90;;;;;;4996485;28;21016;-60
2023/06/21 06:38:50;;;;;;;28.73;25.93;;;20.30;99.90;;;;;;4997214;28;20507;-60
2023/06/21 06:41:19;;;;;;;29.40;26.70;;;20.40;99.90;;;;;;4996047;28;20492;-60
2023/06/21 06:43:47;;;;;;;30.17;27.47;;;20.40;99.90;;;;;;4983056;28;20496;-61
2023/06/21 06:46:15;;;;;;;29.23;26.53;;;20.40;99.90;;;;;;4985882;28;21028;-61
2023/06/21 06:48:43;;;;;;;28.60;25.90;;;20.40;99.90;;;;;;4995177;28;20506;-60
2023/06/21 06:51:11;;;;;;;29.87;27.17;;;20.50;99.90;;;;;;4998491;28;20916;-61
2023/06/21 06:53:41;;;;;;;29.27;26.60;;;20.50;99.90;;;;;;4991663;28;21357;-61
2023/06/21 06:56:10;;;;;;;28.77;26.00;;;20.60;99.90;;;;;;4995025;28;20474;-61
2023/06/21 06:58:38;;;;;;;28.40;25.80;;;20.60;99.90;;;;;;4994534;28;21508;-60
2023/06/21 07:01:06;;;;;;;28.20;25.67;;;20.70;99.90;;;;;;5014895;28;20548;-61
2023/06/21 07:03:34;;;;;;;27.00;24.60;;;20.70;99.90;;;;;;5015472;28;20548;-61
2023/06/21 07:06:03;;;;;;;28.93;26.33;;;20.70;99.90;;;;;;4991487;28;20603;-61
2023/06/21 07:08:31;;;;;;;27.93;25.50;;;20.70;99.90;;;;;;4998031;28;20990;-59
2023/06/21 07:11:00;;;;;;;29.00;26.50;;;20.70;99.90;;;;;;4998715;28;20568;-59
2023/06/21 07:13:28;;;;;;;28.30;25.70;;;20.80;99.90;;;;;;4997328;28;20920;-59
2023/06/21 07:15:56;;;;;;;27.53;25.13;;;20.80;99.90;;;;;;4997628;28;20472;-59
2023/06/21 07:18:24;;;;;;;26.87;24.50;;;20.80;99.90;;;;;;4997178;28;20515;-59
2023/06/21 07:20:52;;;;;;;27.40;25.13;;;20.80;99.90;;;;;;4998911;28;20623;-59
2023/06/21 07:23:20;;;;;;;26.20;23.90;;;20.80;99.90;;;;;;4994612;28;20998;-58
2023/06/21 07:25:48;;;;;;;26.67;24.30;;;20.90;99.90;;;;;;5003824;28;20497;-59
2023/06/21 07:28:18;;;;;;;28.47;26.17;;;20.90;99.90;;;;;;5001907;28;20912;-59
2023/06/21 07:30:46;;;;;;;25.80;23.70;;;21.00;99.90;;;;;;4997638;28;20922;-59
2023/06/21 07:33:14;;;;;;;25.93;23.90;;;21.10;99.90;;;;;;4996622;28;20484;-59
2023/06/21 07:35:42;;;;;;;25.60;23.60;;;21.20;99.90;;;;;;4999402;28;20868;-59
2023/06/21 07:38:10;;;;;;;29.23;26.80;;;21.30;99.90;;;;;;4994587;28;20559;-59
2023/06/21 07:40:38;;;;;;;27.30;25.20;;;21.40;99.90;;;;;;4994827;28;21115;-59
2023/06/21 07:43:06;;;;;;;28.10;25.67;;;21.40;99.90;;;;;;4989987;28;21075;-59
2023/06/21 07:45:36;;;;;;;27.07;24.67;;;21.40;99.90;;;;;;4990556;28;20509;-59
2023/06/21 07:48:04;;;;;;;27.60;25.50;;;21.40;99.90;;;;;;4990687;28;20835;-58
2023/06/21 07:50:32;;;;;;;27.63;25.53;;;21.40;99.90;;;;;;4993343;28;20473;-60
2023/06/21 07:53:00;;;;;;;25.80;23.70;;;21.50;99.90;;;;;;4987251;28;20493;-58
2023/06/21 07:55:28;;;;;;;25.90;23.73;;;21.60;99.90;;;;;;4990227;28;21876;-59
2023/06/21 07:57:57;;;;;;;24.37;22.57;;;21.60;99.90;;;;;;4990126;28;20480;-59
2023/06/21 08:00:25;;;;;;;25.83;23.87;;;21.60;99.90;;;;;;4981283;28;20575;-58
2023/06/21 08:02:54;;;;;;;26.20;24.20;;;21.60;99.90;;;;;;4988293;28;20496;-59
2023/06/21 08:05:22;;;;;;;26.00;24.10;;;21.60;99.90;;;;;;4984860;28;20906;-58
2023/06/21 08:07:53;;;;;;;27.90;25.70;;;21.60;99.90;;;;;;4986635;28;20488;-59
2023/06/21 08:10:21;;;;;;;27.07;24.97;;;21.70;99.90;;;;;;4989794;28;20482;-59
2023/06/21 08:12:49;;;;;;;27.23;25.13;;;21.60;99.90;;;;;;4990875;28;20492;-59
2023/06/21 08:15:18;;;;;;;27.47;25.17;;;21.50;99.90;;;;;;4989774;28;20607;-59
2023/06/21 08:17:46;;;;;;;25.97;23.97;;;21.50;99.90;;;;;;4984279;28;20551;-59
2023/06/21 08:20:16;;;;;;;26.87;24.77;;;21.50;99.90;;;;;;4988963;28;20986;-58
2023/06/21 08:22:44;;;;;;;24.73;22.77;;;21.60;99.90;;;;;;4990602;28;20489;-59
2023/06/21 08:25:12;;;;;;;23.00;21.00;;;21.60;99.90;;;;;;4992037;28;20946;-58
2023/06/21 08:27:40;;;;;;;22.93;21.07;;;21.70;99.90;;;;;;4990456;28;20511;-59
2023/06/21 08:30:10;;;;;;;23.63;21.80;;;21.90;99.90;;;;;;4990942;28;20479;-58
2023/06/21 08:32:38;;;;;;;21.47;19.67;;;22.00;99.90;;;;;;4988549;28;20485;-59
2023/06/21 08:35:06;;;;;;;21.00;19.40;;;22.10;99.90;;;;;;4992724;28;20523;-59
2023/06/21 08:37:36;;;;;;;19.23;17.70;;;22.10;99.90;;;;;;4986169;28;20909;-59
2023/06/21 08:40:04;;;;;;;18.63;17.07;;;22.10;99.90;;;;;;4991031;28;21047;-59
2023/06/21 08:42:32;;;;;;;18.03;16.63;;;22.10;99.90;;;;;;4988256;28;21084;-59
2023/06/21 08:45:01;;;;;;;18.03;16.67;;;22.20;99.90;;;;;;4990097;28;20511;-59
2023/06/21 08:47:32;;;;;;;16.97;15.70;;;22.30;99.90;;;;;;4989036;28;20492;-56
2023/06/21 08:50:01;;;;;;;17.07;15.80;;;22.30;99.90;;;;;;4991385;28;20469;-57
2023/06/21 08:52:30;;;;;;;17.73;16.33;;;22.40;99.90;;;;;;4987637;28;21013;-57
2023/06/21 08:55:04;;;;;;;16.60;15.30;;;22.40;99.90;;;;;;4988140;28;20547;-59
2023/06/21 08:57:36;;;;;;;16.47;15.00;;;22.40;99.90;;;;;;4986872;28;20517;-59
2023/06/21 09:00:06;;;;;;;15.27;14.10;;;22.40;99.90;;;;;;4990359;28;21037;-59
2023/06/21 09:02:46;;;;;;;15.80;14.50;;;22.50;99.90;;;;;;4997870;28;21258;-58
2023/06/21 09:05:20;;;;;;;15.70;14.60;;;22.50;99.90;;;;;;5000834;28;20568;-57
2023/06/21 09:07:48;;;;;;;15.90;14.60;;;22.40;99.90;;;;;;4989713;28;20516;-57
2023/06/21 09:10:20;;;;;;;14.87;13.77;;;22.40;99.90;;;;;;4987774;28;20555;-57
2023/06/21 09:12:51;;;;;;;13.90;12.80;;;22.30;99.90;;;;;;4990265;28;20488;-58
2023/06/21 09:15:20;;;;;;;13.00;11.93;;;22.30;99.90;;;;;;4991454;28;21019;-57
2023/06/21 09:17:48;;;;;;;14.27;13.17;;;22.40;99.90;;;;;;4992587;28;20547;-57
2023/06/21 09:20:17;;;;;;;12.30;11.00;;;22.40;99.90;;;;;;4993006;28;20472;-58
2023/06/21 09:22:46;;;;;;;13.00;12.00;;;22.50;99.90;;;;;;4991792;28;21022;-57
2023/06/21 09:25:14;;;;;;;12.10;10.90;;;22.70;99.90;;;;;;4994499;28;20567;-58
2023/06/21 09:27:44;;;;;;;10.60;9.77;;;22.80;99.90;;;;;;4991713;28;20480;-57
2023/06/21 09:30:12;;;;;;;10.43;9.53;;;22.90;99.90;;;;;;4992749;28;21120;-58
2023/06/21 09:32:44;;;;;;;11.00;10.00;;;22.80;99.90;;;;;;4990127;28;20846;-56
2023/06/21 09:35:13;;;;;;;11.03;9.90;;;22.90;99.90;;;;;;4992772;28;20488;-57
2023/06/21 09:37:41;;;;;;;9.20;8.50;;;23.00;99.90;;;;;;5001444;28;20441;-57
2023/06/21 09:40:13;;;;;;;9.30;8.70;;;23.10;99.90;;;;;;5014483;28;20469;-57
2023/06/21 09:42:42;;;;;;;9.60;8.90;;;23.20;99.90;;;;;;4990701;28;20588;-57
2023/06/21 09:45:12;;;;;;;10.40;9.53;;;23.30;99.90;;;;;;4990152;28;20492;-57
2023/06/21 09:47:40;;;;;;;10.60;9.50;;;23.30;99.90;;;;;;4985992;28;21404;-58
2023/06/21 09:50:10;;;;;;;10.57;9.77;;;23.40;99.90;;;;;;4989300;28;20468;-57
2023/06/21 09:52:42;;;;;;;10.63;9.77;;;23.40;99.90;;;;;;4992305;28;20498;-57
2023/06/21 09:55:13;;;;;;;12.27;11.27;;;23.40;99.90;;;;;;4993311;28;20507;-58
2023/06/21 09:57:41;;;;;;;11.53;10.67;;;23.40;99.90;;;;;;4985478;28;20552;-58
2023/06/21 10:00:12;;;;;;;10.00;9.10;;;23.40;99.90;;;;;;4988368;28;20476;-58
2023/06/21 10:02:41;;;;;;;9.60;8.70;;;23.40;99.90;;;;;;4990558;28;20501;-58
2023/06/21 10:05:17;;;;;;;9.80;9.00;;;23.60;99.90;;;;;;4991553;28;20488;-58
2023/06/21 10:07:45;;;;;;;10.43;9.63;;;23.80;99.90;;;;;;4987650;28;20555;-57
2023/06/21 10:10:14;;;;;;;10.17;9.33;;;24.00;99.90;;;;;;4991121;28;20579;-57
2023/06/21 10:12:50;;;;;;;10.93;10.03;;;24.10;99.90;;;;;;4987407;28;20778;-58
2023/06/21 10:15:23;;;;;;;10.70;9.90;;;24.10;99.90;;;;;;4992883;28;20496;-57
2023/06/21 10:17:53;;;;;;;11.30;10.50;;;24.00;99.90;;;;;;4987825;28;20557;-57
2023/06/21 10:20:24;;;;;;;11.30;10.50;;;23.90;99.90;;;;;;4990806;28;20468;-58
2023/06/21 10:22:53;;;;;;;10.83;10.03;;;23.90;99.90;;;;;;4985750;28;20489;-59
2023/06/21 10:25:21;;;;;;;11.53;10.63;;;23.90;99.90;;;;;;4989233;28;20462;-58
2023/06/21 10:27:54;;;;;;;9.67;8.97;;;23.90;99.90;;;;;;4991971;28;20502;-59
2023/06/21 10:30:25;;;;;;;10.93;10.03;;;24.00;99.90;;;;;;4999150;28;20594;-59
2023/06/21 10:32:55;;;;;;;10.30;9.50;;;24.10;99.90;;;;;;4992805;28;21005;-61
2023/06/21 10:35:27;;;;;;;9.93;9.13;;;24.10;99.90;;;;;;4991935;28;20499;-59
2023/06/21 10:38:01;;;;;;;10.97;10.17;;;24.10;99.90;;;;;;4991291;28;20465;-61
2023/06/21 10:40:30;;;;;;;9.80;8.87;;;24.00;99.90;;;;;;4992333;28;20484;-61
2023/06/21 10:42:58;;;;;;;10.20;9.33;;;24.00;99.90;;;;;;4991383;28;20488;-61
2023/06/21 10:45:30;;;;;;;10.33;9.43;;;24.10;99.90;;;;;;4991992;28;21010;-60
2023/06/21 10:47:59;;;;;;;8.97;8.30;;;24.30;99.90;;;;;;4989703;28;21025;-60
2023/06/21 10:50:28;;;;;;;9.83;9.03;;;24.40;99.90;;;;;;4993207;28;20468;-61
2023/06/21 10:53:01;;;;;;;9.90;9.20;;;24.50;99.90;;;;;;4990743;28;21465;-59
2023/06/21 10:55:30;;;;;;;10.60;9.50;;;24.60;99.90;;;;;;4991743;28;20488;-59
2023/06/21 10:58:00;;;;;;;9.77;9.10;;;24.60;99.90;;;;;;4993876;28;20500;-58
2023/06/21 11:00:30;;;;;;;9.70;8.90;;;24.70;99.90;;;;;;4998081;28;20476;-59
2023/06/21 11:02:59;;;;;;;10.60;9.80;;;24.70;99.90;;;;;;4993704;28;20495;-55
2023/06/21 11:05:28;;;;;;;9.10;8.40;;;24.80;99.90;;;;;;4993843;28;20514;-56
2023/06/21 11:07:58;;;;;;;10.00;9.20;;;24.70;99.90;;;;;;4998379;28;20491;-56
2023/06/21 11:10:32;;;;;;;9.83;9.03;;;24.60;99.90;;;;;;4998136;28;20978;-59
2023/06/21 11:13:00;;;;;;;9.97;8.67;;;24.70;99.90;;;;;;5000343;28;20508;-59
2023/06/21 11:15:31;;;;;;;9.63;8.93;;;24.90;99.90;;;;;;4998258;28;20524;-59
2023/06/21 11:18:03;;;;;;;8.80;8.20;;;25.10;99.90;;;;;;5002407;28;20504;-58
2023/06/21 11:20:34;;;;;;;9.27;8.60;;;25.20;99.90;;;;;;5002560;28;20560;-59
2023/06/21 11:23:09;;;;;;;8.93;8.13;;;25.30;99.90;;;;;;5000254;28;20496;-59
2023/06/21 11:25:37;;;;;;;9.23;8.60;;;25.30;99.90;;;;;;4993428;28;20877;-60
2023/06/21 11:28:26;;;;;;;8.23;7.63;;;25.40;99.90;;;;;;4989672;28;20488;-58
2023/06/21 11:31:09;;;;;;;9.60;8.90;;;25.50;99.90;;;;;;4994885;28;20480;-59
2023/06/21 11:33:49;;;;;;;9.10;8.40;;;25.60;99.90;;;;;;4994491;28;21535;-59
2023/06/21 11:36:20;;;;;;;10.17;9.37;;;25.60;99.90;;;;;;4999079;28;20844;-59
2023/06/21 11:38:51;;;;;;;7.67;7.17;;;25.70;99.90;;;;;;4996527;28;20506;-59
2023/06/21 11:41:56;;;;;;;10.00;9.30;;;25.60;99.90;;;;;;4988997;28;20575;-59
2023/06/21 11:44:25;;;;;;;8.57;7.87;;;25.60;99.90;;;;;;4992967;28;20622;-58
2023/06/21 11:47:05;;;;;;;8.17;7.37;;;25.70;99.90;;;;;;4998494;28;20479;-59
2023/06/21 11:49:34;;;;;;;9.83;9.03;;;25.90;99.90;;;;;;5001892;28;20538;-59
2023/06/21 11:52:03;;;;;;;8.73;7.80;;;25.90;99.90;;;;;;4988403;28;20501;-58
2023/06/21 11:54:32;;;;;;;8.33;7.63;;;25.90;99.90;;;;;;4996149;28;20488;-59
2023/06/21 11:57:01;;;;;;;8.30;7.50;;;26.00;99.90;;;;;;4996775;28;20473;-58
2023/06/21 11:59:28;;;;;;;8.33;7.73;;;26.10;99.90;;;;;;4998433;28;20511;-59
2023/06/21 12:02:10;;;;;;;7.90;7.20;;;26.20;99.90;;;;;;4996456;28;21211;-59
2023/06/21 12:04:40;;;;;;;8.73;8.13;;;26.30;99.90;;;;;;4991278;28;21131;-59
2023/06/21 12:07:09;;;;;;;8.63;8.03;;;26.20;99.90;;;;;;4989530;28;20555;-59
2023/06/21 12:09:38;;;;;;;8.90;8.20;;;26.10;99.90;;;;;;4985269;28;20496;-59
2023/06/21 12:12:07;;;;;;;8.90;8.30;;;25.90;99.90;;;;;;4991772;28;20584;-59
2023/06/21 12:14:36;;;;;;;8.23;7.57;;;25.90;99.90;;;;;;4992693;28;20570;-59
2023/06/21 12:17:06;;;;;;;10.10;9.40;;;25.90;99.90;;;;;;5010268;28;20511;-59
2023/06/21 12:19:34;;;;;;;11.77;10.77;;;26.10;99.90;;;;;;5006007;28;20583;-59
2023/06/21 12:22:04;;;;;;;10.77;9.80;;;26.10;99.90;;;;;;4994248;28;20584;-59
2023/06/21 12:24:33;;;;;;;9.13;8.50;;;26.10;99.90;;;;;;4992412;28;20500;-59
2023/06/21 12:27:01;;;;;;;9.80;8.93;;;26.20;99.90;;;;;;4994281;28;20571;-59
2023/06/21 12:29:30;;;;;;;7.70;7.20;;;26.30;99.90;;;;;;4989630;28;21246;-59
2023/06/21 12:31:58;;;;;;;7.03;6.47;;;26.40;99.90;;;;;;4991764;28;20507;-59
2023/06/21 12:34:27;;;;;;;6.70;6.20;;;26.60;99.90;;;;;;4993482;28;20928;-59
2023/06/21 12:36:58;;;;;;;5.20;4.90;;;26.90;99.90;;;;;;4993536;28;20973;-59
2023/06/21 12:39:26;;;;;;;5.77;5.17;;;26.80;99.90;;;;;;4989464;28;20599;-58
2023/06/21 12:41:54;;;;;;;5.27;4.97;;;26.70;99.90;;;;;;4990393;28;20496;-58
2023/06/21 12:44:25;;;;;;;4.60;4.30;;;26.50;99.90;;;;;;4994558;28;20488;-58
2023/06/21 12:46:54;;;;;;;5.10;4.60;;;26.50;99.90;;;;;;4991024;28;21021;-58
2023/06/21 12:49:22;;;;;;;4.80;4.40;;;26.70;99.90;;;;;;4998365;28;20487;-58